createdAt,value
2022-11-04T00:02:30.818Z,11.55
2022-11-04T00:07:49.584Z,9.38
2022-11-04T00:12:47.839Z,9.05
2022-11-04T00:17:46.096Z,10.77
2022-11-04T00:23:06.759Z,9.80
2022-11-04T00:28:23.475Z,8.32
2022-11-04T00:33:27.403Z,10.35
2022-11-04T00:38:27.114Z,9.02
2022-11-04T00:43:25.336Z,10.93
2022-11-04T00:48:23.570Z,9.60
2022-11-04T00:53:21.831Z,8.77
2022-11-04T00:58:21.372Z,9.32
2022-11-04T01:03:19.575Z,8.75
2022-11-04T01:08:17.934Z,9.00
2022-11-04T01:13:16.146Z,8.95
2022-11-04T01:18:15.771Z,9.20
2022-11-04T01:23:13.972Z,9.23
2022-11-04T01:28:12.218Z,8.80
2022-11-04T01:33:10.498Z,8.27
2022-11-04T01:38:10.454Z,8.98
2022-11-04T01:43:14.132Z,8.32
2022-11-04T01:48:16.720Z,8.30
2022-11-04T01:53:18.019Z,9.38
2022-11-04T01:58:18.357Z,8.30
2022-11-04T02:03:19.429Z,9.05
2022-11-04T02:08:19.575Z,7.68
2022-11-04T02:13:17.882Z,8.13
2022-11-04T02:18:27.140Z,7.80
2022-11-04T02:28:57.366Z,8.40
2022-11-04T02:34:02.610Z,8.20
2022-11-04T02:39:03.450Z,7.60
2022-11-04T02:44:04.438Z,8.85
2022-11-04T02:49:05.525Z,7.43
2022-11-04T02:54:06.303Z,8.48
2022-11-04T02:59:06.298Z,8.57
2022-11-04T03:04:07.771Z,8.43
2022-11-04T03:09:06.356Z,8.93
2022-11-04T03:14:06.459Z,7.28
2022-11-04T03:19:10.619Z,8.95
2022-11-04T03:24:08.848Z,7.63
2022-11-04T03:29:14.330Z,8.43
2022-11-04T03:34:14.065Z,8.60
2022-11-04T03:39:12.280Z,8.40
2022-11-04T03:44:10.589Z,7.60
2022-11-04T03:49:10.378Z,7.65
2022-11-04T03:54:10.067Z,8.52
2022-11-04T03:59:18.252Z,7.57
2022-11-04T04:04:18.163Z,7.85
2022-11-04T04:09:20.723Z,8.45
2022-11-04T04:14:35.207Z,8.00
2022-11-04T04:19:34.619Z,7.78
2022-11-04T04:24:53.987Z,8.60
2022-11-04T04:29:53.417Z,7.22
2022-11-04T04:35:11.711Z,8.73
2022-11-04T04:40:30.915Z,8.27
2022-11-04T04:45:32.938Z,8.52
2022-11-04T04:50:35.781Z,7.93
2022-11-04T04:55:40.609Z,8.27
2022-11-04T05:00:40.321Z,11.82
2022-11-04T05:05:38.602Z,11.23
2022-11-04T05:10:38.217Z,18.20
2022-11-04T05:15:36.505Z,13.45
2022-11-04T05:20:35.142Z,11.38
2022-11-04T05:25:33.416Z,10.70
2022-11-04T05:30:33.060Z,11.15
2022-11-04T05:35:31.240Z,10.77
2022-11-04T05:40:29.427Z,12.27
2022-11-04T05:45:27.688Z,12.30
2022-11-04T05:50:27.231Z,10.68
2022-11-04T05:55:25.430Z,11.63
2022-11-04T06:00:23.798Z,14.15
2022-11-04T06:05:21.997Z,13.00
2022-11-04T06:10:21.579Z,13.27
2022-11-04T06:15:19.802Z,14.30
2022-11-04T06:20:17.967Z,15.45
2022-11-04T06:25:16.655Z,16.17
2022-11-04T06:30:16.442Z,12.38
2022-11-04T06:35:14.711Z,14.23
2022-11-04T06:40:13.051Z,13.95
2022-11-04T06:45:11.931Z,11.55
2022-11-04T06:50:12.186Z,10.60
2022-11-04T06:55:11.153Z,15.98
2022-11-04T07:00:10.006Z,18.38
2022-11-04T07:05:08.842Z,15.75
2022-11-04T07:10:08.972Z,16.75
2022-11-04T07:15:07.773Z,18.45
2022-11-04T07:20:06.703Z,20.50
2022-11-04T07:25:05.317Z,20.05
2022-11-04T07:30:05.115Z,20.30
2022-11-04T07:35:03.325Z,16.48
2022-11-04T07:40:01.475Z,17.75
2022-11-04T07:44:59.593Z,18.58
2022-11-04T07:49:59.215Z,17.45
2022-11-04T07:54:57.429Z,17.35
2022-11-04T07:59:55.569Z,16.85
2022-11-04T08:04:53.728Z,14.73
2022-11-04T08:09:53.257Z,15.88
2022-11-04T08:14:51.481Z,14.65
2022-11-04T08:19:50.069Z,16.23
2022-11-04T08:24:48.454Z,19.55
2022-11-04T08:29:47.967Z,16.90
2022-11-04T08:34:46.333Z,14.45
2022-11-04T08:39:44.555Z,13.52
2022-11-04T08:44:43.001Z,14.57
2022-11-04T08:49:42.882Z,14.30
2022-11-04T08:54:41.085Z,12.68
2022-11-04T08:59:39.287Z,13.18
2022-11-04T09:04:37.423Z,14.52
2022-11-04T09:09:37.014Z,15.15
2022-11-04T09:14:35.177Z,13.90
2022-11-04T09:19:33.699Z,15.00
2022-11-04T09:24:32.108Z,14.65
2022-11-04T09:29:33.747Z,13.00
2022-11-04T09:34:32.293Z,15.45
2022-11-04T09:39:30.458Z,12.90
2022-11-04T09:44:30.008Z,13.80
2022-11-04T09:49:31.034Z,12.10
2022-11-04T09:54:34.124Z,12.43
2022-11-04T09:59:33.535Z,12.07
2022-11-04T10:04:41.886Z,12.93
2022-11-04T10:09:48.579Z,11.73
2022-11-04T10:15:04.593Z,10.95
2022-11-04T10:20:18.282Z,10.88
2022-11-04T10:25:17.756Z,12.23
2022-11-04T10:30:17.170Z,11.27
2022-11-04T10:35:20.263Z,11.15
2022-11-04T10:40:21.384Z,10.60
2022-11-04T10:45:21.504Z,10.07
2022-11-04T10:50:32.204Z,9.35
2022-11-04T10:55:34.474Z,10.38
2022-11-04T11:00:40.112Z,10.25
2022-11-04T11:05:40.072Z,10.15
2022-11-04T11:10:38.286Z,8.88
2022-11-04T11:15:38.242Z,11.77
2022-11-04T11:20:38.189Z,11.52
2022-11-04T11:25:42.609Z,10.02
2022-11-04T11:30:55.021Z,9.60
2022-11-04T11:35:54.224Z,9.50
2022-11-04T11:41:23.445Z,9.50
2022-11-04T11:46:13.780Z,10.05
2022-11-04T11:51:13.870Z,10.27
2022-11-04T11:56:19.244Z,9.38
2022-11-04T12:01:25.083Z,10.25
2022-11-04T12:06:29.626Z,10.75
2022-11-04T12:11:38.411Z,9.23
2022-11-04T12:16:41.582Z,8.77
2022-11-04T12:21:41.871Z,9.13
2022-11-04T12:26:45.327Z,9.85
2022-11-04T12:31:51.995Z,10.13
2022-11-04T12:36:58.155Z,9.43
2022-11-04T12:47:27.192Z,8.60
2022-11-04T12:52:35.993Z,10.98
2022-11-04T12:57:38.724Z,11.35
2022-11-04T13:02:40.856Z,10.52
2022-11-04T13:07:41.363Z,11.52
2022-11-04T13:12:42.767Z,10.63
2022-11-04T13:17:41.716Z,12.23
2022-11-04T13:22:40.568Z,12.15
2022-11-04T13:27:44.912Z,11.88
2022-11-04T13:32:48.724Z,11.43
2022-11-04T13:37:51.303Z,12.40
2022-11-04T13:43:24.356Z,12.15
2022-11-04T13:48:26.614Z,12.38
2022-11-04T13:53:41.315Z,14.00
2022-11-04T13:58:44.504Z,12.95
2022-11-04T14:04:02.255Z,16.60
2022-11-04T14:14:17.349Z,13.27
2022-11-04T14:19:33.863Z,9.70
2022-11-04T14:24:33.734Z,16.17
2022-11-04T14:29:32.647Z,12.75
2022-11-04T14:34:33.463Z,13.07
2022-11-04T14:39:35.671Z,11.25
2022-11-04T14:44:35.782Z,11.88
2022-11-04T14:49:41.543Z,10.65
2022-11-04T14:54:41.145Z,11.73
2022-11-04T14:59:39.414Z,11.07
2022-11-04T15:04:37.586Z,11.13
2022-11-04T15:09:40.871Z,11.20
2022-11-04T15:14:40.567Z,12.98
2022-11-04T15:19:38.887Z,13.50
2022-11-04T15:24:37.183Z,13.90
2022-11-04T15:29:35.476Z,13.30
2022-11-04T15:34:36.813Z,13.10
2022-11-04T15:39:36.114Z,13.30
2022-11-04T15:44:35.311Z,11.43
2022-11-04T15:49:35.696Z,10.40
2022-11-04T15:54:36.577Z,12.07
2022-11-04T15:59:35.943Z,10.90
2022-11-04T16:04:35.570Z,10.00
2022-11-04T16:09:45.682Z,12.70
2022-11-04T16:14:51.021Z,11.10
2022-11-04T16:19:51.540Z,11.43
2022-11-04T16:24:50.780Z,11.60
2022-11-04T16:29:56.955Z,8.60
2022-11-04T16:34:58.349Z,9.55
2022-11-04T16:39:56.618Z,12.90
2022-11-04T16:44:58.838Z,12.55
2022-11-04T16:50:00.198Z,12.55
2022-11-04T16:54:58.482Z,16.50
2022-11-04T16:59:57.404Z,16.90
2022-11-04T17:04:56.008Z,17.52
2022-11-04T17:09:55.640Z,15.70
2022-11-04T17:14:54.450Z,13.63
2022-11-04T17:19:52.678Z,13.93
2022-11-04T17:24:50.819Z,15.13
2022-11-04T17:29:50.425Z,13.98
2022-11-04T17:34:48.676Z,14.13
2022-11-04T17:39:46.870Z,16.33
2022-11-04T17:44:45.103Z,17.23
2022-11-04T17:49:44.770Z,15.27
2022-11-04T17:54:43.018Z,15.40
2022-11-04T17:59:41.179Z,17.17
2022-11-04T18:04:39.570Z,17.58
2022-11-04T18:09:39.534Z,17.70
2022-11-04T18:14:37.750Z,16.10
2022-11-04T18:19:36.085Z,17.95
2022-11-04T18:24:34.349Z,16.25
2022-11-04T18:29:34.151Z,16.55
2022-11-04T18:34:32.324Z,15.73
2022-11-04T18:39:30.639Z,15.00
2022-11-04T18:44:28.825Z,16.27
2022-11-04T18:49:28.665Z,14.95
2022-11-04T18:54:26.956Z,15.85
2022-11-04T18:59:25.241Z,15.93
2022-11-04T19:04:23.442Z,15.02
2022-11-04T19:14:41.308Z,14.30
2022-11-04T19:19:41.146Z,16.00
2022-11-04T19:24:41.100Z,15.05
2022-11-04T19:29:39.631Z,16.02
2022-11-04T19:34:38.713Z,14.05
2022-11-04T19:39:36.890Z,14.90
2022-11-04T19:44:36.534Z,14.57
2022-11-04T19:49:34.727Z,16.02
2022-11-04T19:54:33.016Z,19.23
2022-11-04T19:59:31.302Z,20.88
2022-11-04T20:04:30.932Z,22.08
2022-11-04T20:09:29.106Z,21.83
2022-11-04T20:14:28.223Z,23.10
2022-11-04T20:19:26.603Z,22.85
2022-11-04T20:24:26.154Z,21.38
2022-11-04T20:29:24.433Z,23.63
2022-11-04T20:34:22.585Z,24.55
2022-11-04T20:39:21.960Z,23.52
2022-11-04T20:44:22.098Z,23.33
2022-11-04T20:49:20.567Z,21.98
2022-11-04T20:54:18.935Z,21.35
2022-11-04T20:59:18.422Z,21.98
2022-11-04T21:04:19.443Z,22.10
2022-11-04T21:09:18.564Z,22.15
2022-11-04T21:14:19.509Z,20.58
2022-11-04T21:19:21.953Z,19.42
2022-11-04T21:24:20.151Z,20.73
2022-11-04T21:29:20.508Z,20.15
2022-11-04T21:34:20.360Z,21.70
2022-11-04T21:39:18.689Z,22.75
2022-11-04T21:44:16.937Z,20.33
2022-11-04T21:49:15.168Z,18.85
2022-11-04T21:54:14.775Z,17.02
2022-11-04T21:59:18.125Z,16.88
2022-11-04T22:04:16.742Z,17.00
2022-11-04T22:09:16.665Z,15.98
2022-11-04T22:14:14.814Z,16.80
2022-11-04T22:19:14.509Z,16.90
2022-11-04T22:24:13.250Z,17.48
2022-11-04T22:29:12.847Z,18.95
2022-11-04T22:34:11.311Z,18.30
2022-11-04T22:39:16.021Z,17.25
2022-11-04T22:44:16.580Z,16.23
2022-11-04T22:49:14.954Z,14.80
2022-11-04T22:54:13.225Z,14.70
2022-11-04T22:59:11.573Z,13.23
2022-11-04T23:04:12.384Z,12.75
2022-11-04T23:09:11.280Z,12.75
2022-11-04T23:14:29.328Z,13.48
2022-11-04T23:19:30.967Z,13.60
2022-11-04T23:24:46.524Z,14.48
2022-11-04T23:30:01.974Z,13.55
2022-11-04T23:35:18.984Z,12.13
2022-11-04T23:40:17.342Z,15.82
2022-11-04T23:45:32.875Z,14.30
2022-11-04T23:50:51.239Z,11.93
2022-11-04T23:56:07.604Z,13.18
